Time;durP1;ratioP1;P1;durP2;ratioP2;P2;SDS_P1;SDS_P2;PMS_P1;PMS_P2;Temp;Humidity;BMP_temperature;BMP_pressure;BME280_temperature;BME280_humidity;BME280_pressure;Samples;Min_cycle;Max_cycle;Signal;HPM_P1;HPM_P2
2023/11/27 06:45:47;;;;;;;7.65;3.83;;;;;;;;;;10543506;28;20407;-84
2023/11/27 06:50:49;;;;;;;6.72;4.45;;;;;;;;;;10524467;28;20028;-84
2023/11/27 08:04:09;;;;;;;3.80;1.63;;;;;;;;;;10505510;28;20032;-81
2023/11/27 08:09:14;;;;;;;3.83;1.90;;;;;;;;;;10510571;28;20102;-83
2023/11/27 08:14:16;;;;;;;3.50;2.00;;;;;;;;;;10518159;28;20099;-84
2023/11/27 08:19:20;;;;;;;4.40;2.10;;;;;;;;;;10512284;28;20032;-84
2023/11/27 08:24:21;;;;;;;4.25;2.25;;;;;;;;;;10523693;28;20068;-84
2023/11/27 08:29:23;;;;;;;5.85;3.13;;;;;;;;;;10519784;28;20151;-84
2023/11/27 08:34:24;;;;;;;6.13;2.70;;;;;;;;;;10504902;28;20044;-83
2023/11/27 08:39:28;;;;;;;5.07;2.50;;;;;;;;;;10519950;28;20056;-83
2023/11/27 08:44:29;;;;;;;2.85;1.70;;;;;;;;;;10522291;28;20060;-84
2023/11/27 08:49:33;;;;;;;6.13;2.72;;;;;;;;;;10522234;28;20197;-84
2023/11/27 08:54:34;;;;;;;2.95;1.80;;;;;;;;;;10537879;28;20024;-83
2023/11/27 08:59:42;;;;;;;3.63;2.30;;;;;;;;;;10540440;28;20036;-85
2023/11/27 09:04:49;;;;;;;2.85;2.00;;;;;;;;;;10512188;28;20033;-83
2023/11/27 09:09:50;;;;;;;3.33;1.60;;;;;;;;;;10461439;28;20132;-84
2023/11/27 09:14:51;;;;;;;2.17;1.60;;;;;;;;;;10475675;28;20423;-83
2023/11/27 09:19:52;;;;;;;4.07;1.85;;;;;;;;;;10475936;28;20033;-84
2023/11/27 09:24:55;;;;;;;1.95;1.55;;;;;;;;;;10474663;28;20416;-83
2023/11/27 09:29:56;;;;;;;2.75;1.55;;;;;;;;;;10473687;28;20052;-84
2023/11/27 09:34:58;;;;;;;1.95;1.20;;;;;;;;;;10456964;28;20037;-83
2023/11/27 09:40:01;;;;;;;1.95;1.40;;;;;;;;;;10473775;28;20135;-84
2023/11/27 09:45:12;;;;;;;2.03;1.30;;;;;;;;;;10475219;28;20101;-83
2023/11/27 09:50:15;;;;;;;4.40;1.52;;;;;;;;;;10476055;28;20029;-83
2023/11/27 09:55:18;;;;;;;1.98;1.20;;;;;;;;;;10475255;28;20021;-83
2023/11/27 10:00:20;;;;;;;3.20;1.92;;;;;;;;;;10471203;28;20065;-84
2023/11/27 10:05:22;;;;;;;1.75;1.00;;;;;;;;;;10471852;28;20384;-83
2023/11/27 10:10:28;;;;;;;4.47;3.28;;;;;;;;;;10473184;28;20045;-83
2023/11/27 10:15:30;;;;;;;1.67;1.20;;;;;;;;;;10468260;28;20037;-84
2023/11/27 10:20:33;;;;;;;2.13;1.10;;;;;;;;;;10471314;28;20100;-84
2023/11/27 10:25:34;;;;;;;2.45;1.00;;;;;;;;;;10471045;28;20034;-85
2023/11/27 10:30:36;;;;;;;2.30;1.20;;;;;;;;;;10472366;28;20036;-84
2023/11/27 10:35:38;;;;;;;3.28;1.17;;;;;;;;;;10472533;28;20033;-83
2023/11/27 10:40:44;;;;;;;1.85;0.95;;;;;;;;;;10476422;28;20029;-83
2023/11/27 10:45:52;;;;;;;1.27;0.80;;;;;;;;;;10471375;28;20037;-83
2023/11/27 10:51:03;;;;;;;2.20;1.10;;;;;;;;;;10454197;28;20030;-84
2023/11/27 10:56:10;;;;;;;1.67;0.90;;;;;;;;;;10476224;28;20010;-84
2023/11/27 11:01:19;;;;;;;1.80;1.20;;;;;;;;;;10474697;28;20021;-84
2023/11/27 11:06:25;;;;;;;1.45;1.10;;;;;;;;;;10456010;28;20049;-83
2023/11/27 11:11:32;;;;;;;1.60;0.90;;;;;;;;;;10454649;28;20048;-84
2023/11/27 11:16:42;;;;;;;2.03;0.90;;;;;;;;;;10476186;28;20071;-83
2023/11/27 11:21:57;;;;;;;2.22;0.98;;;;;;;;;;10455285;28;20029;-83
2023/11/27 11:27:11;;;;;;;2.90;1.40;;;;;;;;;;10482152;28;20064;-84
2023/11/27 11:32:16;;;;;;;2.40;0.90;;;;;;;;;;10480397;28;20033;-83
2023/11/27 11:37:25;;;;;;;1.05;0.70;;;;;;;;;;10488419;28;20033;-85
2023/11/27 11:42:29;;;;;;;1.67;1.00;;;;;;;;;;10489524;28;20040;-84
2023/11/27 11:47:34;;;;;;;1.65;0.90;;;;;;;;;;10483880;28;20033;-84
2023/11/27 11:52:41;;;;;;;1.30;0.90;;;;;;;;;;10488318;28;20068;-84
2023/11/27 11:57:44;;;;;;;1.17;0.70;;;;;;;;;;10498845;28;20049;-83
2023/11/27 12:03:15;;;;;;;1.73;0.93;;;;;;;;;;10481173;28;20468;-84
2023/11/27 12:08:19;;;;;;;2.75;1.77;;;;;;;;;;10484029;28;20053;-83
2023/11/27 12:13:43;;;;;;;1.63;0.98;;;;;;;;;;10479272;28;20102;-84
2023/11/27 12:19:02;;;;;;;2.17;0.75;;;;;;;;;;10471711;28;20055;-82
2023/11/27 12:24:17;;;;;;;3.90;1.20;;;;;;;;;;10474304;28;20106;-84
2023/11/27 12:29:28;;;;;;;1.50;1.00;;;;;;;;;;10448040;28;20081;-84
2023/11/27 12:34:40;;;;;;;;;;;;;;;;;;10461451;28;20108;-85
2023/11/27 12:51:11;;;;;;;;;;;;;;;;;;10476256;28;20041;-86
2023/11/27 13:01:25;;;;;;;1.67;1.00;;;;;;;;;;10517312;28;20490;-81
2023/11/27 13:06:27;;;;;;;1.13;0.90;;;;;;;;;;10506348;28;20039;-82
2023/11/27 13:11:31;;;;;;;1.40;1.10;;;;;;;;;;10520642;28;20048;-82
2023/11/27 13:16:33;;;;;;;1.65;1.13;;;;;;;;;;10525551;28;20096;-81
2023/11/27 13:21:39;;;;;;;1.27;0.98;;;;;;;;;;10527086;28;20553;-82
2023/11/27 13:26:50;;;;;;;4.85;0.90;;;;;;;;;;10526952;28;20086;-84
2023/11/27 13:32:07;;;;;;;1.63;1.00;;;;;;;;;;10526932;28;20094;-84
2023/11/27 13:37:34;;;;;;;1.95;0.75;;;;;;;;;;10528015;28;20385;-83
2023/11/27 13:42:50;;;;;;;2.05;1.33;;;;;;;;;;10506502;28;20070;-81
2023/11/27 13:48:13;;;;;;;3.03;2.40;;;;;;;;;;10525940;28;20064;-81
2023/11/27 13:53:19;;;;;;;1.33;1.02;;;;;;;;;;10528827;28;20033;-82
2023/11/27 13:58:26;;;;;;;2.20;1.15;;;;;;;;;;10526127;28;20040;-83
2023/11/27 14:04:27;;;;;;;4.18;1.20;;;;;;;;;;10511394;28;20064;-85
2023/11/27 14:14:49;;;;;;;1.73;1.20;;;;;;;;;;10461699;28;20101;-82
2023/11/27 14:25:49;;;;;;;1.95;1.00;;;;;;;;;;10512299;28;20036;-82
2023/11/27 14:30:51;;;;;;;2.38;1.30;;;;;;;;;;10529607;28;20083;-82
2023/11/27 14:35:53;;;;;;;2.88;1.10;;;;;;;;;;10525932;28;20033;-83
2023/11/27 14:40:57;;;;;;;1.67;0.77;;;;;;;;;;10524653;28;20056;-83
2023/11/27 14:46:21;;;;;;;1.30;0.80;;;;;;;;;;10515862;28;20029;-83
2023/11/27 14:57:26;;;;;;;1.58;0.80;;;;;;;;;;10524413;28;20033;-84
2023/11/27 15:02:48;;;;;;;2.50;1.52;;;;;;;;;;10511504;28;20134;-83
2023/11/27 15:13:56;;;;;;;2.67;1.30;;;;;;;;;;10527700;28;20032;-82
2023/11/27 15:25:08;;;;;;;2.63;1.00;;;;;;;;;;10397706;28;20049;-82
2023/11/27 15:30:17;;;;;;;1.55;1.00;;;;;;;;;;10481555;28;20116;-84
2023/11/27 15:35:25;;;;;;;2.03;1.20;;;;;;;;;;10527474;28;20037;-83
2023/11/27 15:41:15;;;;;;;1.60;1.20;;;;;;;;;;10436410;28;20033;-82
2023/11/27 15:46:54;;;;;;;3.00;2.28;;;;;;;;;;10438627;28;20029;-82
2023/11/27 15:57:36;;;;;;;;;;;;;;;;;;10435516;28;20148;-81
2023/11/27 16:03:13;;;;;;;3.88;2.70;;;;;;;;;;10438531;28;20005;-81
2023/11/27 16:08:43;;;;;;;2.38;1.05;;;;;;;;;;10444233;28;20075;-82
2023/11/27 16:14:12;;;;;;;3.08;1.50;;;;;;;;;;10434160;28;20049;-80
2023/11/27 16:25:34;;;;;;;2.60;2.00;;;;;;;;;;10438083;28;20033;-81
2023/11/27 16:30:40;;;;;;;1.77;1.17;;;;;;;;;;10432968;28;20040;-80
2023/11/27 16:35:50;;;;;;;2.53;1.15;;;;;;;;;;10486935;28;20041;-81
2023/11/27 16:46:59;;;;;;;5.10;3.28;;;;;;;;;;10478686;28;20029;-82
2023/11/27 16:52:07;;;;;;;2.03;1.50;;;;;;;;;;10441674;28;20047;-82
2023/11/27 16:57:20;;;;;;;2.28;1.50;;;;;;;;;;10473211;28;20061;-82
2023/11/27 17:02:24;;;;;;;2.80;1.60;;;;;;;;;;10470470;28;20037;-83
2023/11/27 17:07:29;;;;;;;2.58;1.33;;;;;;;;;;10469779;28;20021;-82
2023/11/27 17:12:55;;;;;;;3.30;1.88;;;;;;;;;;10489074;28;20095;-82
2023/11/27 17:18:16;;;;;;;2.15;1.40;;;;;;;;;;10451346;28;20037;-84
2023/11/27 17:23:17;;;;;;;3.90;2.25;;;;;;;;;;10498058;28;20056;-82
2023/11/27 19:00:43;;;;;;;2.55;2.15;;;;;;;;;;10517832;22;20052;-80
2023/11/27 19:05:46;;;;;;;2.83;2.20;;;;;;;;;;10485244;28;20044;-80
2023/11/27 19:10:47;;;;;;;2.25;1.90;;;;;;;;;;10491453;28;20070;-80
2023/11/27 19:15:51;;;;;;;2.83;2.30;;;;;;;;;;10483958;28;20055;-80
2023/11/27 19:20:53;;;;;;;3.22;2.50;;;;;;;;;;10483611;28;20135;-80
2023/11/27 19:25:54;;;;;;;3.13;2.63;;;;;;;;;;10484061;28;20576;-80
2023/11/27 19:31:00;;;;;;;5.28;4.45;;;;;;;;;;10502317;28;20040;-80
2023/11/27 19:36:02;;;;;;;4.22;3.33;;;;;;;;;;10503826;28;20082;-79
2023/11/27 19:41:06;;;;;;;3.35;2.60;;;;;;;;;;10471261;28;20041;-79
2023/11/27 19:46:07;;;;;;;3.70;3.28;;;;;;;;;;10484773;28;20033;-80
2023/11/27 19:51:09;;;;;;;3.20;2.90;;;;;;;;;;10487327;28;20035;-79
2023/11/27 19:56:10;;;;;;;3.22;2.80;;;;;;;;;;10490608;28;20037;-79
2023/11/27 20:01:12;;;;;;;3.08;2.78;;;;;;;;;;10504433;28;20048;-79
2023/11/27 20:06:13;;;;;;;2.47;2.28;;;;;;;;;;10507487;28;20559;-80
